Архив погоды в Новодевичьем

Метеограмма Новодевичье
Понедельник, 25 Мая
Время местн. Темп Ветер Видим Явления Облачность нижн/средн/верх Атм. давл. Влжн Точка росы ВНГО R Сост. почвы Tg s
Напр Скр Прв ур.ст ур.м изм
19:00 +16.7° Ю 3 - 50 км - переменная облачность 758 771 +0.6 48% +5.6° - - - - -
16:00 +18.9° В,С-В 3 - 50 км - переменная облачность 757 770 +0.5 37% +3.8° 1 км - - - -
13:00 +18.2° С-З 3 - 50 км - переменная облачность 757 769 +0.3 40% +4.5° 1 км - - - -
10:00 +15° Ю,Ю-З 6 - 50 км облака рассеиваются {ливневые осадки} переменная облачность 756 769 +0.2 67% +8.9° 1 км - - - -
07:00 +9.9° Ю-З 5 - 50 км слабый ливневый дождь облачно 756 769 +1.1 86% +7.7° 600 м - Влажная (без луж) - -
04:00 +10.1° Ю 1 - 50 км слабый ливневый дождь облачно с прояснениями 755 768 +0.5 76% +6.1° 600 м - - - -
01:00 +8.9° Ю 1 - 50 км - облачно с прояснениями 755 768 +0.5 78% +5.2° более 2.5 км - - - -
Воскресенье, 24 Мая
Время местн. Темп Ветер Видим Явления Облачность нижн/средн/верх Атм. давл. Влжн Точка росы ВНГО R Сост. почвы Tg s
Напр Скр Прв ур.ст ур.м изм
22:00 +9.4° З 2 - 50 км - облачно с прояснениями 754 767 +1.1 78% +5.8° - - - - -
19:00 +15.6° З 4 - 50 км - переменная облачность 753 766 +0.8 51% +5.5° 1 км - - - -
16:00 +15.9° З 5 11 50 км - облачно с прояснениями 752 765 +2 52% +6.1° 1 км - - - -
13:00 +14.6° З 7 11 50 км - преимущественно облачно 750 763 +3 58% +6.4° 1.5 км - - - -
10:00 +13.7° З 7 10 50 км - облачно с прояснениями 747 760 +2.9 70% +8.4° 1 км - - - -
07:00 +12.4° Ю,Ю-З 4 - 50 км - облачно 744 757 +0.6 79% +8.9° - - Влажная (без луж) - -
04:00 +11.4° С-В 2 - 50 км - облачно 744 757 -0.5 82% +8.5° 1 км - - - -
01:00 +12.5° С-В 4 - 50 км небо без изменений {ливневые осадки} облачно 744 757 -1.7 74% +7.9° 600 м - - - -
Суббота, 23 Мая
Время местн. Темп Ветер Видим Явления Облачность нижн/средн/верх Атм. давл. Влжн Точка росы ВНГО R Сост. почвы Tg s
Напр Скр Прв ур.ст ур.м изм
22:00 +14.7° С-В 4 - 50 км - облачно 746 759 -0.8 61% +7.3° - - - - -
19:00 +15.7° С-В 4 - 50 км - облачно 747 759 -1.1 51% +5.6° 1 км - - - -
16:00 +16.8° С,С-В 6 10 50 км - облачно 748 760 -1 41% +3.4° - - - - -
13:00 +14.3° С,С-В 4 - 50 км - преимущественно облачно 749 762 -0.5 51% +4.4° - - - - -
10:00 +10.6° С,С-В 3 - 50 км - облачно 749 762 +0.3 65% +4.2° - - - - -
07:00 +8.4° С 2 - 50 км - облачно с прояснениями 749 762 +0.5 77% +4.7° - - Влажная (без луж) - -
04:00 +6.5° С 2 - 50 км - ясно 748 762 +0.8 81% +3.5° более 2.5 км - - - -
01:00 +9.4° С 1 - 50 км - ясно 748 761 +1.2 67% +3.6° более 2.5 км - - - -
Пятница, 22 Мая
Время местн. Темп Ветер Видим Явления Облачность нижн/средн/верх Атм. давл. Влжн Точка росы ВНГО R Сост. почвы Tg s
Напр Скр Прв ур.ст ур.м изм
22:00 +9.6° З 3 - 50 км - переменная облачность 746 759 +0.3 60% +2.3° - - - - -
19:00 +16.2° З,Ю-З 3 - 50 км - переменная облачность 746 759 0 31% -1.1° - - - - -
16:00 +17° Ю-З 2 - 50 км - облачно с прояснениями 746 759 +0.3 32% +0.2° 1 км - - - -